Terminal Aerodrome Forecast
Issued by NWS Albuquerque, NM

Current Version | Previous Version | Text Only | Print | Product List | Glossary On
Versions: 1 2 3 4 5 6 7 8 9 10 11 12 13 14 15 16
000
FTUS45 KABQ 290538
TAFABQ
TAF
KABQ 290538Z 2906/3006 09015KT P6SM BKN120
     FM291000 09010KT P6SM BKN100
     FM291700 13010KT P6SM SCT080 BKN150
     FM292200 12011KT P6SM VCTS SCT070CB BKN120
     FM300200 09013KT P6SM VCSH BKN070=

USA.gov is the U.S. government's official web portal to all federal, state and local government web resources and services.